No particular awareness of the weather is required.    There are no Weather-warnings

Kopaida air sports center. The private airport (CTAF) Kopaida (ZZZZ) located near Athens southwest of Castle village in Voiotia,
just one hour from leaving the National Road Athens - Lamia of Kifissia. The exact location of the airport is N 38 ° 27.41 'and E 023 ° 08.18'.



Kopaida NW more information Kopaida NW


Agios Dimitrios more information Agios Dimitrios


Kopaida live view NE

Athens SkydiveBecome a Skydiver

Spot fly AviationSpot Flight Academy



Nearby METAR Reports

   
LGTG - Tanagra
Updated: 20-09-2018 16:50
NOT Current
Few Clouds  
Few Clouds  
   Wind: NW 16.7 km/h<br />Gust to 16.7 km/h
Wind: NW 16.7 km/h
Gust to 16.7 km/h
Temperature: 25°C
Dew Point: 9°C
Humidity: 36%
Barometer: 1017 hPa
Clouds: Few Clouds
Visibility: More than 10 km
Cloud details: Few Clouds 3000 ft
LGTG 201350Z 32009G19KT 9999 FEW030 25/09 Q1017 BLU
LGBL - Anchialos
Updated: 24-09-2018 09:20
Clear  
Clear  
   Wind: Calm
Wind: Calm
Temperature: 23°C
Dew Point: 11°C
Humidity: 47%
Barometer: 1014 hPa
Visibility: More than 10 km
Cloud details: Clear ft
LGBL 240620Z 00000KT CAVOK 23/11 Q1014
LGKR - Corfu
Updated: 24-09-2018 09:20
Few Clouds  
Few Clouds  
   Wind: Calm
Wind: Calm
Temperature: 22°C
Dew Point: 19°C
Humidity: 83%
Barometer: 1015 hPa
Clouds: Few Clouds
Visibility: More than 10 km
Cloud details: Few Clouds 1500 ft
LGKR 240620Z 00000KT 9999 FEW015 22/19 Q1015 NOSIG
LGAV - Eleftherios Venizelos
Updated: 24-09-2018 09:20
Clear  
Clear  
   Wind: Calm
Wind: Calm
Temperature: 25°C
Dew Point: 11°C
Humidity: 42%
Barometer: 1015 hPa
Visibility: More than 10 km
Cloud details: Clear ft
LGAV 240620Z 00000KT CAVOK 25/11 Q1015 NOSIG
LGMT - Mytilene
Updated: 24-09-2018 09:20
Clear  
Clear  
   Wind: NNW 11.1 km/h
Wind: NNW 11.1 km/h
Temperature: 22°C
Dew Point: 14°C
Humidity: 61%
Barometer: 1014 hPa
Visibility: More than 10 km
Cloud details: Clear ft
LGMT 240620Z 33006KT CAVOK 22/14 Q1014
LGIR - Heraklion
Updated: 24-09-2018 09:20
Few Clouds  
Few Clouds  
   Wind: SSE 9.3 km/h
Wind: SSE 9.3 km/h
Temperature: 24°C
Dew Point: 19°C
Humidity: 74%
Barometer: 1015 hPa
Clouds: Few Clouds
Visibility: More than 10 km
Cloud details: Few Clouds 2000 ft
LGIR 240620Z 16005KT 9999 FEW020 24/19 Q1015 NOSIG
LGRP - Rhodes
Updated: 24-09-2018 09:20
Clear  
Clear  
   Wind: WSW 13 km/h
Wind: WSW 13 km/h
Temperature: 26°C
Dew Point: 22°C
Humidity: 79%
Barometer: 1014 hPa
Visibility: More than 10 km
Cloud details: Clear ft
LGRP 240620Z 24007KT CAVOK 26/22 Q1014 NOSIG
LGKV - Kavala
Updated: 24-09-2018 09:20
Clear  
Clear  
   Wind: NNE 5.6 km/h
Wind: NNE 5.6 km/h
Temperature: 20°C
Dew Point: 14°C
Humidity: 69%
Barometer: 1014 hPa
Visibility: More than 10 km
Cloud details: Clear ft
LGKV 240620Z 03003KT CAVOK 20/14 Q1014
LGMK - Mikonos
Updated: 24-09-2018 09:20
Clear  
Clear  
   Wind: WNW 9.3 km/h
Wind: WNW 9.3 km/h
Temperature: 23°C
Dew Point: 17°C
Humidity: 69%
Barometer: 1015 hPa
Visibility: More than 10 km
Cloud details: Clear ft
LGMK 240620Z 29005KT CAVOK 23/17 Q1015

Script developed by  Saratoga-weather.org Adapted for the template by  Weerstation Leuven

You find our weather info also at:

UK Metoffice

European Weather Network

WeatherCloud

Weather Underground

AWEKAS

Citizen Weather Observer Program (CWOP)

HAMweather, WeatherForYou, PWS Weather

Equipment we use:

Weather-station
Wireless Vantage Pro2

Weather-program
Weather Display

Wireless Vantage Pro2

Weather Display


Never base important decisions on this or any weather information obtained from the Internet

Kopaida airport (ZZZZ) - CTAF frequency : 119.700 - Tanagra(LGTG) MATZ 120.250

Airport Phone +306977612200, +302268041170, Contact Mr. George Papadopoulos.